Barrhead, Canada
Current Conditions -  °F | °C
As of 1:00 PM on Friday 21 Nov 2014 (Local Time) from CZVL Reporting Station
Overcast Overcast  
Wind Chill: 40°   Ceiling: 15000
Heat Index: 43°   Visibility: 9mi
Dew Point: 37°   Wind: 5mph
Humidity: 81%   Direction: 330°NNW
Pressure: 29.51"   Gusts: NA
Location:  54.12°N, 114.4°W
Report Text: CZVL 212000Z AUTO 33004KT 310V010 9SM OVC150 06/03 A2951 RMK SLP011
Loading
Personal Weather Stations






























Interactive Weather Map New forecast layout! Learn more

10-Day Weather Forecast

Advertisements
Track Severe Weather on mobile